createdAt,value
2022-11-29T00:01:20.299Z,11.10
2022-11-29T00:03:47.952Z,9.05
2022-11-29T00:06:17.676Z,10.95
2022-11-29T00:08:45.400Z,9.10
2022-11-29T00:11:40.897Z,9.18
2022-11-29T00:14:10.318Z,7.70
2022-11-29T00:16:37.362Z,10.27
2022-11-29T00:19:04.837Z,10.50
2022-11-29T00:21:36.326Z,9.77
2022-11-29T00:24:03.651Z,8.35
2022-11-29T00:26:31.162Z,9.32
2022-11-29T00:29:05.895Z,9.25
2022-11-29T00:31:35.590Z,9.30
2022-11-29T00:34:07.036Z,8.63
2022-11-29T00:36:35.371Z,10.68
2022-11-29T00:39:03.872Z,12.50
2022-11-29T00:41:31.140Z,11.80
2022-11-29T00:43:58.639Z,10.93
2022-11-29T00:46:26.000Z,10.27
2022-11-29T00:49:01.349Z,10.65
2022-11-29T00:51:31.018Z,8.73
2022-11-29T00:53:57.912Z,9.70
2022-11-29T00:56:24.896Z,10.27
2022-11-29T00:58:52.027Z,9.63
2022-11-29T01:01:28.069Z,7.88
2022-11-29T01:03:55.221Z,8.23
2022-11-29T01:06:25.822Z,7.47
2022-11-29T01:08:55.623Z,7.93
2022-11-29T01:11:42.901Z,7.82
2022-11-29T01:14:12.117Z,9.65
2022-11-29T01:16:42.735Z,10.02
2022-11-29T01:19:09.822Z,9.13
2022-11-29T01:21:38.045Z,9.35
2022-11-29T01:24:05.378Z,10.15
2022-11-29T01:26:32.795Z,8.07
2022-11-29T01:29:00.884Z,9.35
2022-11-29T01:31:39.278Z,10.50
2022-11-29T01:34:07.952Z,8.48
2022-11-29T01:36:55.599Z,9.00
2022-11-29T01:39:23.253Z,9.23
2022-11-29T01:44:42.056Z,8.10
2022-11-29T01:47:11.780Z,9.40
2022-11-29T01:49:53.051Z,7.57
2022-11-29T01:52:43.139Z,9.07
2022-11-29T01:55:10.996Z,9.77
2022-11-29T01:57:41.817Z,9.27
2022-11-29T02:00:15.894Z,7.65
2022-11-29T02:02:46.228Z,8.32
2022-11-29T02:05:22.950Z,9.20
2022-11-29T02:07:53.428Z,8.52
2022-11-29T02:10:25.275Z,8.07
2022-11-29T02:13:11.942Z,9.27
2022-11-29T02:16:03.493Z,8.15
2022-11-29T02:18:33.186Z,9.45
2022-11-29T02:21:11.435Z,7.53
2022-11-29T02:24:01.875Z,8.70
2022-11-29T02:29:08.646Z,10.07
2022-11-29T02:32:12.882Z,9.80
2022-11-29T02:34:58.175Z,9.85
2022-11-29T02:37:53.257Z,8.65
2022-11-29T02:40:39.682Z,10.07
2022-11-29T02:43:27.772Z,8.55
2022-11-29T02:45:57.153Z,7.78
2022-11-29T02:49:03.123Z,9.35
2022-11-29T02:51:52.470Z,8.18
2022-11-29T02:54:57.264Z,7.70
2022-11-29T02:57:40.057Z,7.82
2022-11-29T03:00:09.919Z,8.02
2022-11-29T03:02:50.091Z,10.38
2022-11-29T03:05:47.293Z,9.05
2022-11-29T03:08:35.717Z,11.18
2022-11-29T03:11:02.416Z,7.90
2022-11-29T03:14:14.621Z,11.82
2022-11-29T03:17:15.314Z,9.32
2022-11-29T03:20:06.257Z,9.85
2022-11-29T03:22:47.227Z,8.63
2022-11-29T03:25:33.113Z,8.57
2022-11-29T03:28:07.285Z,8.60
2022-11-29T03:30:38.540Z,8.30
2022-11-29T03:33:13.323Z,8.20
2022-11-29T03:35:46.262Z,12.10
2022-11-29T03:38:46.476Z,8.10
2022-11-29T03:41:24.818Z,8.18
2022-11-29T03:44:12.532Z,8.55
2022-11-29T03:47:08.411Z,10.48
2022-11-29T03:49:45.819Z,9.95
2022-11-29T03:52:13.795Z,8.18
2022-11-29T03:54:59.820Z,9.77
2022-11-29T03:57:34.580Z,7.75
2022-11-29T04:00:11.424Z,8.77
2022-11-29T04:02:44.337Z,8.93
2022-11-29T04:05:48.102Z,10.30
2022-11-29T04:08:50.892Z,7.78
2022-11-29T04:11:35.308Z,9.40
2022-11-29T04:14:20.102Z,8.70
2022-11-29T04:20:01.988Z,8.68
2022-11-29T04:22:42.181Z,10.15
2022-11-29T04:25:21.817Z,8.95
2022-11-29T04:28:19.485Z,9.82
2022-11-29T04:31:18.117Z,9.70
2022-11-29T04:34:01.563Z,10.18
2022-11-29T04:36:56.905Z,11.75
2022-11-29T04:39:48.462Z,9.95
2022-11-29T04:42:57.489Z,8.95
2022-11-29T04:45:58.205Z,11.32
2022-11-29T04:48:44.822Z,9.60
2022-11-29T04:51:27.132Z,10.32
2022-11-29T04:54:33.084Z,11.70
2022-11-29T04:57:35.571Z,11.05
2022-11-29T05:00:14.183Z,12.15
2022-11-29T05:03:02.661Z,10.25
2022-11-29T05:05:42.062Z,10.95
2022-11-29T05:08:23.942Z,10.45
2022-11-29T05:11:16.382Z,9.70
2022-11-29T05:13:43.323Z,10.32
2022-11-29T05:16:16.320Z,11.00
2022-11-29T05:18:48.603Z,10.02
2022-11-29T05:21:43.611Z,8.75
2022-11-29T05:24:11.875Z,10.77
2022-11-29T05:27:10.876Z,9.70
2022-11-29T05:29:47.973Z,11.68
2022-11-29T05:32:42.159Z,10.23
2022-11-29T05:35:27.849Z,9.52
2022-11-29T05:38:12.540Z,10.50
2022-11-29T05:40:51.270Z,9.88
2022-11-29T05:43:36.592Z,9.45
2022-11-29T05:46:20.478Z,9.45
2022-11-29T05:49:03.777Z,8.38
2022-11-29T05:51:53.595Z,9.25
2022-11-29T05:54:26.731Z,8.20
2022-11-29T05:57:32.137Z,9.98
2022-11-29T06:00:02.094Z,9.13
2022-11-29T06:02:47.054Z,7.93
2022-11-29T06:05:34.483Z,10.05
2022-11-29T06:08:18.558Z,9.65
2022-11-29T06:11:12.499Z,8.75
2022-11-29T06:14:05.738Z,9.60
2022-11-29T06:16:40.165Z,11.25
2022-11-29T06:19:55.150Z,9.90
2022-11-29T06:23:06.648Z,9.20
2022-11-29T06:26:05.535Z,7.80
2022-11-29T06:28:52.691Z,8.63
2022-11-29T06:31:23.884Z,9.40
2022-11-29T06:34:03.044Z,9.18
2022-11-29T06:36:50.541Z,8.43
2022-11-29T06:39:17.764Z,7.85
2022-11-29T06:41:44.549Z,8.75
2022-11-29T06:44:11.835Z,8.15
2022-11-29T06:46:49.771Z,7.28
2022-11-29T06:49:25.125Z,8.27
2022-11-29T06:52:10.351Z,8.02
2022-11-29T06:54:55.298Z,7.90
2022-11-29T06:57:34.461Z,6.50
2022-11-29T07:00:13.510Z,7.50
2022-11-29T07:03:11.916Z,7.85
2022-11-29T07:05:39.468Z,7.65
2022-11-29T07:08:12.148Z,7.93
2022-11-29T07:10:40.539Z,7.53
2022-11-29T07:13:07.596Z,6.43
2022-11-29T07:15:36.884Z,7.38
2022-11-29T07:18:18.680Z,7.22
2022-11-29T07:21:20.421Z,7.07
2022-11-29T07:24:05.206Z,7.15
2022-11-29T07:26:34.990Z,7.82
2022-11-29T07:29:40.042Z,6.63
2022-11-29T07:32:18.997Z,6.97
2022-11-29T07:34:51.693Z,7.57
2022-11-29T07:37:31.899Z,6.95
2022-11-29T07:40:04.876Z,9.43
2022-11-29T07:42:44.454Z,9.88
2022-11-29T07:45:27.799Z,9.10
2022-11-29T07:47:55.261Z,9.95
2022-11-29T07:52:51.671Z,11.13
2022-11-29T07:55:21.625Z,11.13
2022-11-29T07:57:48.967Z,10.10
2022-11-29T08:00:17.437Z,10.82
2022-11-29T08:03:05.404Z,11.02
2022-11-29T08:10:47.845Z,11.07
2022-11-29T08:13:14.697Z,11.70
2022-11-29T08:15:46.011Z,10.90
2022-11-29T08:24:13.128Z,11.95
2022-11-29T08:26:46.185Z,10.75
2022-11-29T08:29:17.786Z,10.10
2022-11-29T08:31:53.681Z,11.00
2022-11-29T08:34:44.667Z,13.07
2022-11-29T08:37:16.049Z,12.35
2022-11-29T08:40:05.643Z,10.68
2022-11-29T08:42:37.997Z,12.65
2022-11-29T08:45:12.410Z,11.70
2022-11-29T08:48:05.544Z,11.55
2022-11-29T08:50:35.273Z,12.15
2022-11-29T08:53:28.861Z,10.88
2022-11-29T08:57:38.478Z,11.20
2022-11-29T09:03:20.901Z,11.63
2022-11-29T09:09:15.498Z,11.48
2022-11-29T09:15:00.271Z,10.23
2022-11-29T09:17:38.819Z,10.15
2022-11-29T09:21:20.061Z,9.68
2022-11-29T09:24:12.507Z,9.75
2022-11-29T09:26:55.780Z,10.55
2022-11-29T09:29:54.255Z,8.60
2022-11-29T09:32:38.381Z,9.70
2022-11-29T09:35:21.665Z,9.00
2022-11-29T09:42:30.880Z,9.30
2022-11-29T09:48:36.524Z,8.68
2022-11-29T09:51:28.741Z,9.40
2022-11-29T09:55:11.858Z,9.35
2022-11-29T09:58:40.929Z,9.88
2022-11-29T10:01:14.510Z,9.60
2022-11-29T10:04:00.559Z,10.07
2022-11-29T10:07:33.886Z,9.77
2022-11-29T10:13:57.045Z,9.30
2022-11-29T10:17:08.743Z,9.45
2022-11-29T10:33:42.633Z,8.32
2022-11-29T10:36:33.410Z,9.07
2022-11-29T10:39:10.076Z,8.80
2022-11-29T10:41:40.983Z,9.93
2022-11-29T10:44:13.387Z,8.50
2022-11-29T11:06:09.878Z,8.30
2022-11-29T11:53:53.731Z,8.05
2022-11-29T11:56:21.930Z,7.97
2022-11-29T11:58:58.221Z,8.20
2022-11-29T12:01:37.556Z,7.63
2022-11-29T12:04:37.251Z,8.27
2022-11-29T12:08:05.723Z,7.60
2022-11-29T12:10:25.614Z,7.80
2022-11-29T12:12:55.307Z,8.57
2022-11-29T13:15:06.668Z,8.30
2022-11-29T13:18:19.569Z,9.75
2022-11-29T13:20:51.696Z,7.57
2022-11-29T13:23:46.307Z,7.55
2022-11-29T13:26:18.517Z,7.72
2022-11-29T13:28:46.652Z,7.65
2022-11-29T13:31:25.142Z,7.25
2022-11-29T13:34:14.378Z,7.60
2022-11-29T13:39:22.484Z,8.40
2022-11-29T13:44:43.238Z,9.15
2022-11-29T13:50:29.131Z,8.35
2022-11-29T13:53:07.965Z,7.88
2022-11-29T14:14:31.794Z,10.45
2022-11-29T14:19:37.031Z,9.02
2022-11-29T14:22:06.428Z,9.90
2022-11-29T14:24:33.297Z,9.30
2022-11-29T14:27:05.942Z,10.13
2022-11-29T14:29:47.638Z,10.43
2022-11-29T14:32:46.203Z,10.40
2022-11-29T14:35:16.927Z,10.55
2022-11-29T14:38:11.892Z,11.38
2022-11-29T14:40:41.640Z,10.32
2022-11-29T14:54:12.926Z,10.23
2022-11-29T15:26:25.607Z,12.70
2022-11-29T15:29:35.767Z,11.70
2022-11-29T15:40:20.826Z,10.95
2022-11-29T16:12:12.813Z,12.38
2022-11-29T16:14:57.043Z,12.63
2022-11-29T16:17:31.938Z,11.43
2022-11-29T16:20:13.805Z,12.75
2022-11-29T16:22:40.759Z,12.90
2022-11-29T16:25:16.240Z,14.05
2022-11-29T16:27:43.397Z,14.77
2022-11-29T16:30:25.916Z,16.85
2022-11-29T16:33:00.855Z,15.82
2022-11-29T16:35:30.119Z,13.13
2022-11-29T16:40:34.891Z,12.70
2022-11-29T17:09:24.405Z,12.77
2022-11-29T17:11:51.059Z,11.02
2022-11-29T17:14:17.766Z,12.98
2022-11-29T17:16:44.824Z,12.18
2022-11-29T17:19:13.258Z,11.77
2022-11-29T17:21:40.173Z,12.63
2022-11-29T17:24:10.093Z,12.23
2022-11-29T17:26:36.740Z,13.50
2022-11-29T17:29:03.842Z,11.40
2022-11-29T17:31:31.543Z,12.60
2022-11-29T17:34:01.735Z,13.40
2022-11-29T17:36:29.073Z,12.40
2022-11-29T17:38:58.489Z,12.80
2022-11-29T17:41:26.493Z,12.13
2022-11-29T17:43:55.627Z,12.50
2022-11-29T17:46:26.412Z,12.43
2022-11-29T17:48:53.887Z,12.18
2022-11-29T17:51:50.753Z,12.27
2022-11-29T17:54:10.838Z,12.23
2022-11-29T17:56:37.509Z,11.73
2022-11-29T17:59:04.614Z,12.63
2022-11-29T18:01:33.342Z,11.82
2022-11-29T18:04:01.884Z,10.77
2022-11-29T18:06:31.146Z,12.15
2022-11-29T18:08:59.931Z,13.25
2022-11-29T18:49:18.190Z,12.05
2022-11-29T18:54:20.157Z,11.93
2022-11-29T19:07:29.514Z,12.70
2022-11-29T19:09:56.306Z,12.07
2022-11-29T19:12:23.495Z,11.63
2022-11-29T19:14:50.456Z,10.25
2022-11-29T19:17:18.090Z,11.88
2022-11-29T19:19:47.957Z,10.93
2022-11-29T19:22:14.812Z,11.73
2022-11-29T19:24:41.442Z,11.30
2022-11-29T19:27:08.201Z,10.88
2022-11-29T19:29:39.457Z,12.40
2022-11-29T19:32:08.552Z,12.75
2022-11-29T19:37:17.506Z,10.60
2022-11-29T19:55:48.025Z,11.60
2022-11-29T19:58:14.759Z,12.75
2022-11-29T20:00:41.685Z,13.38
2022-11-29T20:03:10.433Z,12.38
2022-11-29T20:08:21.929Z,12.45
2022-11-29T20:10:51.120Z,12.15
2022-11-29T20:13:21.202Z,10.73
2022-11-29T20:15:48.395Z,11.55
2022-11-29T20:18:15.850Z,10.73
2022-11-29T20:20:42.562Z,11.73
2022-11-29T20:23:09.706Z,11.45
2022-11-29T20:25:36.880Z,10.10
2022-11-29T20:28:04.288Z,10.20
2022-11-29T20:30:31.665Z,10.98
2022-11-29T20:32:58.451Z,11.02
2022-11-29T20:35:25.369Z,9.82
2022-11-29T20:38:14.180Z,10.20
2022-11-29T20:41:02.687Z,10.52
2022-11-29T20:43:43.128Z,10.13
2022-11-29T20:46:10.008Z,10.73
2022-11-29T20:48:36.904Z,10.70
2022-11-29T20:51:04.593Z,10.68
2022-11-29T20:53:39.615Z,11.23
2022-11-29T21:55:32.217Z,11.30
2022-11-29T21:57:59.280Z,12.25
2022-11-29T22:00:26.188Z,14.20
2022-11-29T22:02:53.393Z,14.40
2022-11-29T22:05:20.108Z,12.80
2022-11-29T22:07:46.762Z,11.88
2022-11-29T22:10:13.797Z,11.50
2022-11-29T22:12:49.381Z,10.73
2022-11-29T22:55:47.996Z,10.40
2022-11-29T22:58:14.665Z,8.05
2022-11-29T23:00:44.100Z,8.85
2022-11-29T23:03:11.017Z,8.10
2022-11-29T23:05:37.791Z,8.25
2022-11-29T23:08:04.626Z,8.02
2022-11-29T23:10:31.402Z,8.30
2022-11-29T23:12:58.049Z,7.85
